Sandpiper — WDG2173 — position and weather

sailwx.info

Track history (hours):
 
Tides and Currents Weather Stations Pressure Air Temp Water Temp Dewpoint Dewpoint Depression Visibility Wind Speed Wind Dir Waves Ship Positions

Sandpiper

Owner: Higman Barge Lines, Inc., Orange, TX. More information available from US FCC via Universal Licensing System and Coast Guard Vessel Documentation Center.

Last reported at 2018-Feb-17 18:17 UTC. Time now 2018-Feb-20 19:54 UTC.
Position N 27°50' W 097°30'.

Length 26 m; draft 3 m.

Type: Towing. MMSI: 367512920.

Date/timePositionNaut miles runAvg speedWind from/ knotsBaromVisibWave heightAir tempDewpointWater temp
2018-Feb-17 18:17N 27°50' W 097°30'2 2.7
2018-Feb-17 17:24N 27°49' W 097°27'3 4.1
2018-Feb-17 16:41N 27°49' W 097°24'0 0.3
2018-Feb-17 16:26N 27°49' W 097°24'7 4.8
2018-Feb-17 15:00N 27°51' W 097°31'0 0.0
2018-Feb-17 14:28N 27°51' W 097°31'6 3.7
2018-Feb-17 12:51N 27°49' W 097°25'1 2.3
2018-Feb-17 12:28N 27°49' W 097°24'0 0.0
2018-Feb-17 11:55N 27°49' W 097°24'0 0.0
2018-Feb-17 10:51N 27°49' W 097°24'1 0.0
2018-Feb-16 03:07N 27°49' W 097°25'0 0.0
2018-Feb-16 02:59N 27°49' W 097°25'0 0.0
2018-Feb-16 02:30N 27°49' W 097°25'0 0.1
2018-Feb-16 01:47N 27°49' W 097°25'1 2.6
2018-Feb-16 01:29N 27°49' W 097°24'0 0.1
2018-Feb-16 00:57N 27°49' W 097°24'0 0.0
2018-Feb-15 23:35N 27°49' W 097°24'0 0.0
2018-Feb-15 23:28N 27°49' W 097°24'0 0.0
2018-Feb-15 23:00N 27°49' W 097°24'0 0.0
2018-Feb-14 07:58N 27°49' W 097°24'0 0.0
2018-Feb-14 07:17N 27°49' W 097°24'0 0.0
2018-Feb-14 05:41N 27°49' W 097°24'0 0.0
2018-Feb-14 05:26N 27°49' W 097°24'0 0.0
2018-Feb-14 04:59N 27°49' W 097°24'0 0.0
2018-Feb-14 04:21N 27°49' W 097°24'0 0.0
2018-Feb-14 02:04N 27°49' W 097°24'0 0.0
2018-Feb-14 02:00N 27°49' W 097°24'0 0.0
2018-Feb-13 23:52N 27°49' W 097°24'0 0.0
2018-Feb-13 22:16N 27°49' W 097°24'0 0.0
2018-Feb-13 18:46N 27°49' W 097°24'0 0.0
2018-Feb-13 16:23N 27°49' W 097°24'0 0.0
2018-Feb-13 14:00N 27°49' W 097°24'0 0.0
2018-Feb-13 10:31N 27°49' W 097°24'0 0.0
2018-Feb-13 08:11N 27°49' W 097°24'0 0.0
2018-Feb-13 07:51N 27°49' W 097°24'0 0.0
2018-Feb-13 06:01N 27°49' W 097°24'0 1.2
2018-Feb-13 05:59N 27°49' W 097°24'0 0.0
2018-Feb-13 05:29N 27°49' W 097°24'3 4.4
2018-Feb-13 04:52N 27°49' W 097°21'3 6.9
2018-Feb-13 04:30N 27°49' W 097°18'4 7.2
2018-Feb-13 04:00N 27°49' W 097°14'4 7.3
2018-Feb-13 03:30N 27°50' W 097°10'4 7.7
2018-Feb-13 03:00N 27°50' W 097°06'3 6.0
2018-Feb-13 02:28N 27°52' W 097°03'3 6.0
2018-Feb-13 02:00N 27°55' W 097°03'3 6.0
2018-Feb-13 01:30N 27°58' W 097°03'3 6.0
2018-Feb-13 01:00N 28°01' W 097°01'3 6.2
2018-Feb-13 00:29N 28°03' W 096°59'3 6.0
2018-Feb-12 23:59N 28°05' W 096°57'3 6.1
2018-Feb-12 23:30N 28°08' W 096°55'3 6.4
2018-Feb-12 23:00N 28°10' W 096°52'3 6.8
2018-Feb-12 22:30N 28°12' W 096°50'3 6.0
2018-Feb-12 22:00N 28°14' W 096°47'  
2018-Feb-08 13:30N 29°31' W 094°53'4 7.6
2018-Feb-08 13:00N 29°35' W 094°56'  
Track history (hours):
 
Tides and Currents Weather Stations Pressure Air Temp Water Temp Dewpoint Dewpoint Depression Visibility Wind Speed Wind Dir Waves Ship Positions

Sandpiper

Owner: Higman Barge Lines, Inc., Orange, TX. More information available from US FCC via Universal Licensing System and Coast Guard Vessel Documentation Center.

Last reported at 2018-Feb-17 18:17 UTC. Time now 2018-Feb-20 19:54 UTC.
Position N 27°50' W 097°30'.

Length 26 m; draft 3 m.

Type: Towing. MMSI: 367512920.

Date/timePositionNaut miles runAvg speedWind from/ knotsBaromVisibWave heightAir tempDewpointWater temp
2018-Feb-17 18:17N 27°50' W 097°30'2 2.7
2018-Feb-17 17:24N 27°49' W 097°27'3 4.1
2018-Feb-17 16:41N 27°49' W 097°24'0 0.3
2018-Feb-17 16:26N 27°49' W 097°24'7 4.8
2018-Feb-17 15:00N 27°51' W 097°31'0 0.0
2018-Feb-17 14:28N 27°51' W 097°31'6 3.7
2018-Feb-17 12:51N 27°49' W 097°25'1 2.3
2018-Feb-17 12:28N 27°49' W 097°24'0 0.0
2018-Feb-17 11:55N 27°49' W 097°24'0 0.0
2018-Feb-17 10:51N 27°49' W 097°24'1 0.0
2018-Feb-16 03:07N 27°49' W 097°25'0 0.0
2018-Feb-16 02:59N 27°49' W 097°25'0 0.0
2018-Feb-16 02:30N 27°49' W 097°25'0 0.1
2018-Feb-16 01:47N 27°49' W 097°25'1 2.6
2018-Feb-16 01:29N 27°49' W 097°24'0 0.1
2018-Feb-16 00:57N 27°49' W 097°24'0 0.0
2018-Feb-15 23:35N 27°49' W 097°24'0 0.0
2018-Feb-15 23:28N 27°49' W 097°24'0 0.0
2018-Feb-15 23:00N 27°49' W 097°24'0 0.0
2018-Feb-14 07:58N 27°49' W 097°24'0 0.0
2018-Feb-14 07:17N 27°49' W 097°24'0 0.0
2018-Feb-14 05:41N 27°49' W 097°24'0 0.0
2018-Feb-14 05:26N 27°49' W 097°24'0 0.0
2018-Feb-14 04:59N 27°49' W 097°24'0 0.0
2018-Feb-14 04:21N 27°49' W 097°24'0 0.0
2018-Feb-14 02:04N 27°49' W 097°24'0 0.0
2018-Feb-14 02:00N 27°49' W 097°24'0 0.0
2018-Feb-13 23:52N 27°49' W 097°24'0 0.0
2018-Feb-13 22:16N 27°49' W 097°24'0 0.0
2018-Feb-13 18:46N 27°49' W 097°24'0 0.0
2018-Feb-13 16:23N 27°49' W 097°24'0 0.0
2018-Feb-13 14:00N 27°49' W 097°24'0 0.0
2018-Feb-13 10:31N 27°49' W 097°24'0 0.0
2018-Feb-13 08:11N 27°49' W 097°24'0 0.0
2018-Feb-13 07:51N 27°49' W 097°24'0 0.0
2018-Feb-13 06:01N 27°49' W 097°24'0 1.2
2018-Feb-13 05:59N 27°49' W 097°24'0 0.0
2018-Feb-13 05:29N 27°49' W 097°24'3 4.4
2018-Feb-13 04:52N 27°49' W 097°21'3 6.9
2018-Feb-13 04:30N 27°49' W 097°18'4 7.2
2018-Feb-13 04:00N 27°49' W 097°14'4 7.3
2018-Feb-13 03:30N 27°50' W 097°10'4 7.7
2018-Feb-13 03:00N 27°50' W 097°06'3 6.0
2018-Feb-13 02:28N 27°52' W 097°03'3 6.0
2018-Feb-13 02:00N 27°55' W 097°03'3 6.0
2018-Feb-13 01:30N 27°58' W 097°03'3 6.0
2018-Feb-13 01:00N 28°01' W 097°01'3 6.2
2018-Feb-13 00:29N 28°03' W 096°59'3 6.0
2018-Feb-12 23:59N 28°05' W 096°57'3 6.1
2018-Feb-12 23:30N 28°08' W 096°55'3 6.4
2018-Feb-12 23:00N 28°10' W 096°52'3 6.8
2018-Feb-12 22:30N 28°12' W 096°50'3 6.0
2018-Feb-12 22:00N 28°14' W 096°47'  
2018-Feb-08 13:30N 29°31' W 094°53'4 7.6
2018-Feb-08 13:00N 29°35' W 094°56'  

Dump ship's entire track history